sensor_id;sensor_type;location;lat;lon;timestamp;temperature;humidity
15879;DHT22;61999;51.514;14.614;2023-04-15T00:00:30;4.40;80.00
15879;DHT22;61999;51.514;14.614;2023-04-15T00:02:59;4.40;80.00
15879;DHT22;61999;51.514;14.614;2023-04-15T00:05:28;4.50;80.10
15879;DHT22;61999;51.514;14.614;2023-04-15T00:07:57;4.40;80.20
15879;DHT22;61999;51.514;14.614;2023-04-15T00:10:26;4.50;80.10
15879;DHT22;61999;51.514;14.614;2023-04-15T00:12:54;4.50;80.30
15879;DHT22;61999;51.514;14.614;2023-04-15T00:15:23;4.50;79.60
15879;DHT22;61999;51.514;14.614;2023-04-15T00:17:50;4.50;79.60
15879;DHT22;61999;51.514;14.614;2023-04-15T00:20:18;4.50;79.90
15879;DHT22;61999;51.514;14.614;2023-04-15T00:22:46;4.50;80.00
15879;DHT22;61999;51.514;14.614;2023-04-15T00:25:14;4.50;80.00
15879;DHT22;61999;51.514;14.614;2023-04-15T00:27:43;4.50;80.10
15879;DHT22;61999;51.514;14.614;2023-04-15T00:30:12;4.50;80.20
15879;DHT22;61999;51.514;14.614;2023-04-15T00:32:40;4.40;80.10
15879;DHT22;61999;51.514;14.614;2023-04-15T00:35:08;4.50;80.00
15879;DHT22;61999;51.514;14.614;2023-04-15T00:37:36;4.50;80.10
15879;DHT22;61999;51.514;14.614;2023-04-15T00:40:05;4.40;80.10
15879;DHT22;61999;51.514;14.614;2023-04-15T00:42:38;4.50;80.30
15879;DHT22;61999;51.514;14.614;2023-04-15T00:45:08;4.50;80.10
15879;DHT22;61999;51.514;14.614;2023-04-15T00:47:38;4.50;80.00
15879;DHT22;61999;51.514;14.614;2023-04-15T00:50:08;4.50;80.00
15879;DHT22;61999;51.514;14.614;2023-04-15T00:52:37;4.50;80.00
15879;DHT22;61999;51.514;14.614;2023-04-15T00:55:06;4.50;80.00
15879;DHT22;61999;51.514;14.614;2023-04-15T00:57:35;4.50;79.90
15879;DHT22;61999;51.514;14.614;2023-04-15T01:00:05;4.50;80.00
15879;DHT22;61999;51.514;14.614;2023-04-15T01:02:37;4.50;80.10
15879;DHT22;61999;51.514;14.614;2023-04-15T01:05:05;4.50;80.00
15879;DHT22;61999;51.514;14.614;2023-04-15T01:07:34;4.40;80.20
15879;DHT22;61999;51.514;14.614;2023-04-15T01:10:02;4.50;80.40
15879;DHT22;61999;51.514;14.614;2023-04-15T01:12:31;4.50;80.30
15879;DHT22;61999;51.514;14.614;2023-04-15T01:15:01;4.50;80.10
15879;DHT22;61999;51.514;14.614;2023-04-15T01:17:30;4.50;80.00
15879;DHT22;61999;51.514;14.614;2023-04-15T01:19:58;4.60;79.70
15879;DHT22;61999;51.514;14.614;2023-04-15T01:22:27;4.60;79.60
15879;DHT22;61999;51.514;14.614;2023-04-15T01:24:59;4.60;79.60
15879;DHT22;61999;51.514;14.614;2023-04-15T01:27:35;4.60;79.60
15879;DHT22;61999;51.514;14.614;2023-04-15T01:30:06;4.60;79.70
15879;DHT22;61999;51.514;14.614;2023-04-15T01:32:36;4.60;79.60
15879;DHT22;61999;51.514;14.614;2023-04-15T01:35:05;4.60;79.70
15879;DHT22;61999;51.514;14.614;2023-04-15T01:37:34;4.60;79.60
15879;DHT22;61999;51.514;14.614;2023-04-15T01:40:04;4.60;79.80
15879;DHT22;61999;51.514;14.614;2023-04-15T01:42:35;4.60;79.60
15879;DHT22;61999;51.514;14.614;2023-04-15T01:45:04;4.60;79.40
15879;DHT22;61999;51.514;14.614;2023-04-15T01:47:33;4.70;79.30
15879;DHT22;61999;51.514;14.614;2023-04-15T01:50:01;4.70;79.20
15879;DHT22;61999;51.514;14.614;2023-04-15T01:52:29;4.60;79.30
15879;DHT22;61999;51.514;14.614;2023-04-15T01:54:57;4.70;79.30
15879;DHT22;61999;51.514;14.614;2023-04-15T01:57:25;4.70;79.30
15879;DHT22;61999;51.514;14.614;2023-04-15T01:59:54;4.60;79.10
15879;DHT22;61999;51.514;14.614;2023-04-15T02:02:22;4.60;79.20
15879;DHT22;61999;51.514;14.614;2023-04-15T02:04:50;4.60;79.40
15879;DHT22;61999;51.514;14.614;2023-04-15T02:07:19;4.60;79.40
15879;DHT22;61999;51.514;14.614;2023-04-15T02:09:47;4.50;79.50
15879;DHT22;61999;51.514;14.614;2023-04-15T02:12:15;4.50;79.60
15879;DHT22;61999;51.514;14.614;2023-04-15T02:14:43;4.60;79.60
15879;DHT22;61999;51.514;14.614;2023-04-15T02:17:12;4.50;79.60
15879;DHT22;61999;51.514;14.614;2023-04-15T02:19:39;4.50;79.60
15879;DHT22;61999;51.514;14.614;2023-04-15T02:22:07;4.50;79.70
15879;DHT22;61999;51.514;14.614;2023-04-15T02:24:36;4.60;79.70
15879;DHT22;61999;51.514;14.614;2023-04-15T02:27:04;4.60;79.70
15879;DHT22;61999;51.514;14.614;2023-04-15T02:29:32;4.60;79.60
15879;DHT22;61999;51.514;14.614;2023-04-15T02:32:00;4.60;79.70
15879;DHT22;61999;51.514;14.614;2023-04-15T02:34:29;4.60;79.80
15879;DHT22;61999;51.514;14.614;2023-04-15T02:36:59;4.60;79.80
15879;DHT22;61999;51.514;14.614;2023-04-15T02:39:27;4.60;79.70
15879;DHT22;61999;51.514;14.614;2023-04-15T02:41:55;4.70;79.50
15879;DHT22;61999;51.514;14.614;2023-04-15T02:44:24;4.70;79.30
15879;DHT22;61999;51.514;14.614;2023-04-15T02:46:52;4.70;79.40
15879;DHT22;61999;51.514;14.614;2023-04-15T02:49:21;4.70;79.40
15879;DHT22;61999;51.514;14.614;2023-04-15T02:51:50;4.70;79.60
15879;DHT22;61999;51.514;14.614;2023-04-15T02:54:19;4.70;79.70
15879;DHT22;61999;51.514;14.614;2023-04-15T02:56:48;4.70;79.70
15879;DHT22;61999;51.514;14.614;2023-04-15T02:59:16;4.70;79.70
15879;DHT22;61999;51.514;14.614;2023-04-15T03:01:44;4.70;79.70
15879;DHT22;61999;51.514;14.614;2023-04-15T03:04:12;4.70;79.40
15879;DHT22;61999;51.514;14.614;2023-04-15T03:06:40;4.70;79.40
15879;DHT22;61999;51.514;14.614;2023-04-15T03:09:09;4.70;79.30
15879;DHT22;61999;51.514;14.614;2023-04-15T03:11:38;4.70;79.30
15879;DHT22;61999;51.514;14.614;2023-04-15T03:14:07;4.70;79.40
15879;DHT22;61999;51.514;14.614;2023-04-15T03:16:35;4.70;79.40
15879;DHT22;61999;51.514;14.614;2023-04-15T03:19:03;4.70;79.40
15879;DHT22;61999;51.514;14.614;2023-04-15T03:21:31;4.70;79.40
15879;DHT22;61999;51.514;14.614;2023-04-15T03:23:59;4.70;79.40
15879;DHT22;61999;51.514;14.614;2023-04-15T03:26:29;4.70;79.40
15879;DHT22;61999;51.514;14.614;2023-04-15T03:28:57;4.70;79.60
15879;DHT22;61999;51.514;14.614;2023-04-15T03:31:26;4.70;79.50
15879;DHT22;61999;51.514;14.614;2023-04-15T03:33:54;4.70;79.60
15879;DHT22;61999;51.514;14.614;2023-04-15T03:36:21;4.70;79.70
15879;DHT22;61999;51.514;14.614;2023-04-15T03:38:49;4.70;80.40
15879;DHT22;61999;51.514;14.614;2023-04-15T03:41:18;4.70;79.70
15879;DHT22;61999;51.514;14.614;2023-04-15T03:43:48;4.80;79.70
15879;DHT22;61999;51.514;14.614;2023-04-15T03:46:17;4.80;79.80
15879;DHT22;61999;51.514;14.614;2023-04-15T03:48:46;4.80;79.80
15879;DHT22;61999;51.514;14.614;2023-04-15T03:51:14;4.90;79.50
15879;DHT22;61999;51.514;14.614;2023-04-15T03:53:42;4.90;79.30
15879;DHT22;61999;51.514;14.614;2023-04-15T03:56:09;5.00;79.00
15879;DHT22;61999;51.514;14.614;2023-04-15T03:58:37;4.90;79.00
15879;DHT22;61999;51.514;14.614;2023-04-15T04:01:06;4.90;78.90
15879;DHT22;61999;51.514;14.614;2023-04-15T04:03:34;4.90;79.00
15879;DHT22;61999;51.514;14.614;2023-04-15T04:06:02;4.90;79.20
15879;DHT22;61999;51.514;14.614;2023-04-15T04:08:30;4.90;79.20
15879;DHT22;61999;51.514;14.614;2023-04-15T04:10:58;4.90;79.20
15879;DHT22;61999;51.514;14.614;2023-04-15T04:13:26;4.90;79.10
15879;DHT22;61999;51.514;14.614;2023-04-15T04:15:54;4.90;79.10
15879;DHT22;61999;51.514;14.614;2023-04-15T04:18:23;4.90;79.20
15879;DHT22;61999;51.514;14.614;2023-04-15T04:20:51;4.90;79.20
15879;DHT22;61999;51.514;14.614;2023-04-15T04:23:19;4.90;79.20
15879;DHT22;61999;51.514;14.614;2023-04-15T04:25:47;4.90;79.30
15879;DHT22;61999;51.514;14.614;2023-04-15T04:28:15;4.90;79.40
15879;DHT22;61999;51.514;14.614;2023-04-15T04:30:43;4.90;79.40
15879;DHT22;61999;51.514;14.614;2023-04-15T04:33:11;4.90;79.50
15879;DHT22;61999;51.514;14.614;2023-04-15T04:35:40;4.90;79.50
15879;DHT22;61999;51.514;14.614;2023-04-15T04:38:08;5.00;79.40
15879;DHT22;61999;51.514;14.614;2023-04-15T04:40:36;5.00;79.40
15879;DHT22;61999;51.514;14.614;2023-04-15T04:43:04;5.00;79.30
15879;DHT22;61999;51.514;14.614;2023-04-15T04:45:32;5.00;79.20
15879;DHT22;61999;51.514;14.614;2023-04-15T04:48:00;5.00;79.20
15879;DHT22;61999;51.514;14.614;2023-04-15T04:50:28;5.00;79.30
15879;DHT22;61999;51.514;14.614;2023-04-15T04:52:57;5.00;79.30
15879;DHT22;61999;51.514;14.614;2023-04-15T04:55:27;5.00;79.30
15879;DHT22;61999;51.514;14.614;2023-04-15T04:57:55;5.10;79.20
15879;DHT22;61999;51.514;14.614;2023-04-15T05:00:23;5.10;79.10
15879;DHT22;61999;51.514;14.614;2023-04-15T05:02:51;5.10;79.00
15879;DHT22;61999;51.514;14.614;2023-04-15T05:05:18;5.10;78.80
15879;DHT22;61999;51.514;14.614;2023-04-15T05:07:46;5.10;78.80
15879;DHT22;61999;51.514;14.614;2023-04-15T05:10:17;5.10;78.80
15879;DHT22;61999;51.514;14.614;2023-04-15T05:12:45;5.20;78.80
15879;DHT22;61999;51.514;14.614;2023-04-15T05:15:13;5.10;78.60
15879;DHT22;61999;51.514;14.614;2023-04-15T05:17:41;5.20;78.70
15879;DHT22;61999;51.514;14.614;2023-04-15T05:20:09;5.20;78.60
15879;DHT22;61999;51.514;14.614;2023-04-15T05:22:38;5.10;78.60
15879;DHT22;61999;51.514;14.614;2023-04-15T05:25:07;5.20;78.60
15879;DHT22;61999;51.514;14.614;2023-04-15T05:27:36;5.10;78.60
15879;DHT22;61999;51.514;14.614;2023-04-15T05:30:05;5.10;78.60
15879;DHT22;61999;51.514;14.614;2023-04-15T05:32:34;5.10;78.50
15879;DHT22;61999;51.514;14.614;2023-04-15T05:35:02;5.10;78.70
15879;DHT22;61999;51.514;14.614;2023-04-15T05:37:30;5.10;78.70
15879;DHT22;61999;51.514;14.614;2023-04-15T05:39:58;5.20;78.80
15879;DHT22;61999;51.514;14.614;2023-04-15T05:42:26;5.20;78.90
15879;DHT22;61999;51.514;14.614;2023-04-15T05:44:55;5.20;78.90
15879;DHT22;61999;51.514;14.614;2023-04-15T05:47:23;5.10;78.90
15879;DHT22;61999;51.514;14.614;2023-04-15T05:49:51;5.10;79.00
15879;DHT22;61999;51.514;14.614;2023-04-15T05:52:21;5.20;78.90
15879;DHT22;61999;51.514;14.614;2023-04-15T05:54:49;5.20;78.80
15879;DHT22;61999;51.514;14.614;2023-04-15T05:57:17;5.20;78.70
15879;DHT22;61999;51.514;14.614;2023-04-15T05:59:44;5.20;78.60
15879;DHT22;61999;51.514;14.614;2023-04-15T06:02:14;5.20;78.70
15879;DHT22;61999;51.514;14.614;2023-04-15T06:04:42;5.20;78.70
15879;DHT22;61999;51.514;14.614;2023-04-15T06:07:11;5.20;78.70
15879;DHT22;61999;51.514;14.614;2023-04-15T06:09:39;5.20;78.70
15879;DHT22;61999;51.514;14.614;2023-04-15T06:12:07;5.20;78.60
15879;DHT22;61999;51.514;14.614;2023-04-15T06:14:37;5.20;78.70
15879;DHT22;61999;51.514;14.614;2023-04-15T06:17:06;5.30;79.50
15879;DHT22;61999;51.514;14.614;2023-04-15T06:19:35;5.30;78.60
15879;DHT22;61999;51.514;14.614;2023-04-15T06:22:03;5.30;78.50
15879;DHT22;61999;51.514;14.614;2023-04-15T06:24:32;5.30;78.50
15879;DHT22;61999;51.514;14.614;2023-04-15T06:27:02;5.30;78.60
15879;DHT22;61999;51.514;14.614;2023-04-15T06:29:30;5.30;78.60
15879;DHT22;61999;51.514;14.614;2023-04-15T06:31:58;5.30;78.70
15879;DHT22;61999;51.514;14.614;2023-04-15T06:34:26;5.20;78.60
15879;DHT22;61999;51.514;14.614;2023-04-15T06:36:55;5.30;78.80
15879;DHT22;61999;51.514;14.614;2023-04-15T06:39:23;5.30;78.90
15879;DHT22;61999;51.514;14.614;2023-04-15T06:41:51;5.30;79.00
15879;DHT22;61999;51.514;14.614;2023-04-15T06:44:19;5.30;79.00
15879;DHT22;61999;51.514;14.614;2023-04-15T06:46:47;5.30;78.20
15879;DHT22;61999;51.514;14.614;2023-04-15T06:49:14;5.20;77.60
15879;DHT22;61999;51.514;14.614;2023-04-15T06:51:42;5.30;78.60
15879;DHT22;61999;51.514;14.614;2023-04-15T06:54:12;5.50;77.00
15879;DHT22;61999;51.514;14.614;2023-04-15T06:56:40;5.50;76.40
15879;DHT22;61999;51.514;14.614;2023-04-15T06:59:08;5.50;76.70
15879;DHT22;61999;51.514;14.614;2023-04-15T07:01:35;5.40;76.30
15879;DHT22;61999;51.514;14.614;2023-04-15T07:04:03;5.30;77.00
15879;DHT22;61999;51.514;14.614;2023-04-15T07:06:31;5.30;75.30
15879;DHT22;61999;51.514;14.614;2023-04-15T07:08:59;5.30;76.50
15879;DHT22;61999;51.514;14.614;2023-04-15T07:11:30;5.30;76.60
15879;DHT22;61999;51.514;14.614;2023-04-15T07:13:58;5.30;76.50
15879;DHT22;61999;51.514;14.614;2023-04-15T07:16:25;5.20;75.70
15879;DHT22;61999;51.514;14.614;2023-04-15T07:18:54;5.10;76.40
15879;DHT22;61999;51.514;14.614;2023-04-15T07:21:23;5.10;77.10
15879;DHT22;61999;51.514;14.614;2023-04-15T07:23:53;5.30;76.70
15879;DHT22;61999;51.514;14.614;2023-04-15T07:26:20;5.20;76.60
15879;DHT22;61999;51.514;14.614;2023-04-15T07:28:50;5.30;76.10
15879;DHT22;61999;51.514;14.614;2023-04-15T07:31:18;5.50;74.70
15879;DHT22;61999;51.514;14.614;2023-04-15T07:33:46;5.50;74.70
15879;DHT22;61999;51.514;14.614;2023-04-15T07:36:14;5.50;73.70
15879;DHT22;61999;51.514;14.614;2023-04-15T07:38:42;5.50;73.50
15879;DHT22;61999;51.514;14.614;2023-04-15T07:41:10;5.40;74.10
15879;DHT22;61999;51.514;14.614;2023-04-15T07:43:38;5.50;73.60
15879;DHT22;61999;51.514;14.614;2023-04-15T07:46:07;5.50;73.40
15879;DHT22;61999;51.514;14.614;2023-04-15T07:48:35;5.50;73.50
15879;DHT22;61999;51.514;14.614;2023-04-15T07:51:03;5.50;72.60
15879;DHT22;61999;51.514;14.614;2023-04-15T07:53:31;5.60;71.30
15879;DHT22;61999;51.514;14.614;2023-04-15T07:55:59;5.70;70.80
15879;DHT22;61999;51.514;14.614;2023-04-15T07:58:27;5.60;71.00
15879;DHT22;61999;51.514;14.614;2023-04-15T08:00:55;5.60;71.60
15879;DHT22;61999;51.514;14.614;2023-04-15T08:03:24;5.40;71.80
15879;DHT22;61999;51.514;14.614;2023-04-15T08:05:53;5.40;71.60
15879;DHT22;61999;51.514;14.614;2023-04-15T08:08:20;5.30;72.30
15879;DHT22;61999;51.514;14.614;2023-04-15T08:10:49;5.40;72.10
15879;DHT22;61999;51.514;14.614;2023-04-15T08:13:18;5.40;71.80
15879;DHT22;61999;51.514;14.614;2023-04-15T08:16:11;5.40;71.20
15879;DHT22;61999;51.514;14.614;2023-04-15T08:18:43;5.40;70.90
15879;DHT22;61999;51.514;14.614;2023-04-15T08:21:11;5.30;70.70
15879;DHT22;61999;51.514;14.614;2023-04-15T08:23:39;5.20;71.30
15879;DHT22;61999;51.514;14.614;2023-04-15T08:26:07;5.10;71.50
15879;DHT22;61999;51.514;14.614;2023-04-15T08:28:36;5.10;71.90
15879;DHT22;61999;51.514;14.614;2023-04-15T08:31:05;5.10;71.80
15879;DHT22;61999;51.514;14.614;2023-04-15T08:33:33;5.10;71.40
15879;DHT22;61999;51.514;14.614;2023-04-15T08:36:02;5.10;72.00
15879;DHT22;61999;51.514;14.614;2023-04-15T08:38:31;4.90;72.40
15879;DHT22;61999;51.514;14.614;2023-04-15T08:41:02;4.70;72.80
15879;DHT22;61999;51.514;14.614;2023-04-15T08:43:34;4.90;72.50
15879;DHT22;61999;51.514;14.614;2023-04-15T08:46:11;5.00;72.20
15879;DHT22;61999;51.514;14.614;2023-04-15T08:48:39;5.10;71.40
15879;DHT22;61999;51.514;14.614;2023-04-15T08:51:10;5.20;70.40
15879;DHT22;61999;51.514;14.614;2023-04-15T08:53:42;5.10;70.50
15879;DHT22;61999;51.514;14.614;2023-04-15T08:56:13;4.80;71.10
15879;DHT22;61999;51.514;14.614;2023-04-15T08:58:43;5.10;70.70
15879;DHT22;61999;51.514;14.614;2023-04-15T09:01:11;5.10;70.30
15879;DHT22;61999;51.514;14.614;2023-04-15T09:03:40;5.10;70.10
15879;DHT22;61999;51.514;14.614;2023-04-15T09:06:10;5.10;69.90
15879;DHT22;61999;51.514;14.614;2023-04-15T09:08:38;5.30;68.90
15879;DHT22;61999;51.514;14.614;2023-04-15T09:11:06;5.30;68.60
15879;DHT22;61999;51.514;14.614;2023-04-15T09:13:34;5.20;69.10
15879;DHT22;61999;51.514;14.614;2023-04-15T09:16:04;5.00;69.20
15879;DHT22;61999;51.514;14.614;2023-04-15T09:18:35;4.80;70.40
15879;DHT22;61999;51.514;14.614;2023-04-15T09:21:04;4.80;71.10
15879;DHT22;61999;51.514;14.614;2023-04-15T09:23:36;4.70;71.20
15879;DHT22;61999;51.514;14.614;2023-04-15T09:26:05;4.70;71.30
15879;DHT22;61999;51.514;14.614;2023-04-15T09:28:40;4.90;70.80
15879;DHT22;61999;51.514;14.614;2023-04-15T09:31:08;5.00;70.30
15879;DHT22;61999;51.514;14.614;2023-04-15T09:33:54;5.10;70.10
15879;DHT22;61999;51.514;14.614;2023-04-15T09:36:23;4.90;70.70
15879;DHT22;61999;51.514;14.614;2023-04-15T09:38:57;4.80;71.40
15879;DHT22;61999;51.514;14.614;2023-04-15T09:41:27;5.00;70.70
15879;DHT22;61999;51.514;14.614;2023-04-15T09:43:55;5.10;70.40
15879;DHT22;61999;51.514;14.614;2023-04-15T09:46:41;5.00;70.40
15879;DHT22;61999;51.514;14.614;2023-04-15T09:49:10;5.10;70.60
15879;DHT22;61999;51.514;14.614;2023-04-15T09:51:39;5.00;70.40
15879;DHT22;61999;51.514;14.614;2023-04-15T09:54:09;5.10;70.50
15879;DHT22;61999;51.514;14.614;2023-04-15T09:56:38;5.10;70.90
15879;DHT22;61999;51.514;14.614;2023-04-15T09:59:08;5.10;70.10
15879;DHT22;61999;51.514;14.614;2023-04-15T10:01:36;5.20;70.00
15879;DHT22;61999;51.514;14.614;2023-04-15T10:04:08;5.20;69.80
15879;DHT22;61999;51.514;14.614;2023-04-15T10:06:38;5.20;69.60
15879;DHT22;61999;51.514;14.614;2023-04-15T10:09:08;5.30;68.90
15879;DHT22;61999;51.514;14.614;2023-04-15T10:11:37;5.40;68.60
15879;DHT22;61999;51.514;14.614;2023-04-15T10:14:06;5.40;68.80
15879;DHT22;61999;51.514;14.614;2023-04-15T10:16:38;5.30;69.40
15879;DHT22;61999;51.514;14.614;2023-04-15T10:19:08;5.50;67.90
15879;DHT22;61999;51.514;14.614;2023-04-15T10:21:38;5.50;68.40
15879;DHT22;61999;51.514;14.614;2023-04-15T10:24:09;5.50;68.50
15879;DHT22;61999;51.514;14.614;2023-04-15T10:26:37;5.50;68.20
15879;DHT22;61999;51.514;14.614;2023-04-15T10:29:06;5.80;66.20
15879;DHT22;61999;51.514;14.614;2023-04-15T10:31:35;5.80;66.30
15879;DHT22;61999;51.514;14.614;2023-04-15T10:34:05;5.70;67.20
15879;DHT22;61999;51.514;14.614;2023-04-15T10:36:33;5.70;68.50
15879;DHT22;61999;51.514;14.614;2023-04-15T10:39:01;5.70;67.90
15879;DHT22;61999;51.514;14.614;2023-04-15T10:41:34;5.80;66.70
15879;DHT22;61999;51.514;14.614;2023-04-15T10:44:04;6.10;66.80
15879;DHT22;61999;51.514;14.614;2023-04-15T10:46:37;6.10;67.50
15879;DHT22;61999;51.514;14.614;2023-04-15T10:49:07;6.30;66.50
15879;DHT22;61999;51.514;14.614;2023-04-15T10:51:39;6.90;62.10
15879;DHT22;61999;51.514;14.614;2023-04-15T10:54:12;7.00;61.40
15879;DHT22;61999;51.514;14.614;2023-04-15T10:56:44;6.90;61.80
15879;DHT22;61999;51.514;14.614;2023-04-15T10:59:17;7.00;60.40
15879;DHT22;61999;51.514;14.614;2023-04-15T11:01:50;7.10;61.30
15879;DHT22;61999;51.514;14.614;2023-04-15T11:04:51;7.20;61.70
15879;DHT22;61999;51.514;14.614;2023-04-15T11:07:33;7.40;59.40
15879;DHT22;61999;51.514;14.614;2023-04-15T11:10:03;7.20;60.10
15879;DHT22;61999;51.514;14.614;2023-04-15T11:12:55;7.00;62.00
15879;DHT22;61999;51.514;14.614;2023-04-15T11:15:27;6.90;62.90
15879;DHT22;61999;51.514;14.614;2023-04-15T11:17:57;6.90;63.50
15879;DHT22;61999;51.514;14.614;2023-04-15T11:20:26;7.00;63.10
15879;DHT22;61999;51.514;14.614;2023-04-15T11:22:54;6.90;62.90
15879;DHT22;61999;51.514;14.614;2023-04-15T11:25:23;7.10;61.50
15879;DHT22;61999;51.514;14.614;2023-04-15T11:27:53;7.50;59.50
15879;DHT22;61999;51.514;14.614;2023-04-15T11:30:25;7.60;59.10
15879;DHT22;61999;51.514;14.614;2023-04-15T11:32:56;7.60;58.80
15879;DHT22;61999;51.514;14.614;2023-04-15T11:35:26;7.40;59.90
15879;DHT22;61999;51.514;14.614;2023-04-15T11:37:55;7.50;58.80
15879;DHT22;61999;51.514;14.614;2023-04-15T11:40:25;7.40;59.20
15879;DHT22;61999;51.514;14.614;2023-04-15T11:43:05;7.30;60.00
15879;DHT22;61999;51.514;14.614;2023-04-15T11:45:34;7.20;60.40
15879;DHT22;61999;51.514;14.614;2023-04-15T11:48:06;7.30;60.30
15879;DHT22;61999;51.514;14.614;2023-04-15T11:50:37;7.50;59.50
15879;DHT22;61999;51.514;14.614;2023-04-15T11:53:08;7.60;59.20
15879;DHT22;61999;51.514;14.614;2023-04-15T11:55:42;7.70;58.60
15879;DHT22;61999;51.514;14.614;2023-04-15T11:58:14;7.50;58.80
15879;DHT22;61999;51.514;14.614;2023-04-15T12:00:47;7.50;60.30
15879;DHT22;61999;51.514;14.614;2023-04-15T12:03:24;7.60;59.50
15879;DHT22;61999;51.514;14.614;2023-04-15T12:06:11;7.80;58.50
15879;DHT22;61999;51.514;14.614;2023-04-15T12:09:03;8.20;57.10
15879;DHT22;61999;51.514;14.614;2023-04-15T12:11:37;8.30;56.70
15879;DHT22;61999;51.514;14.614;2023-04-15T12:14:18;8.30;56.90
15879;DHT22;61999;51.514;14.614;2023-04-15T12:16:49;8.10;56.70
15879;DHT22;61999;51.514;14.614;2023-04-15T12:19:23;7.90;58.10
15879;DHT22;61999;51.514;14.614;2023-04-15T12:21:56;7.90;58.70
15879;DHT22;61999;51.514;14.614;2023-04-15T12:24:25;8.10;57.90
15879;DHT22;61999;51.514;14.614;2023-04-15T12:26:55;8.10;58.10
15879;DHT22;61999;51.514;14.614;2023-04-15T12:29:27;8.10;58.20
15879;DHT22;61999;51.514;14.614;2023-04-15T12:31:57;8.30;57.40
15879;DHT22;61999;51.514;14.614;2023-04-15T12:34:31;8.50;56.20
15879;DHT22;61999;51.514;14.614;2023-04-15T12:37:02;8.50;56.90
15879;DHT22;61999;51.514;14.614;2023-04-15T12:39:35;8.50;57.20
15879;DHT22;61999;51.514;14.614;2023-04-15T12:42:04;8.60;56.80
15879;DHT22;61999;51.514;14.614;2023-04-15T12:44:35;8.80;56.50
15879;DHT22;61999;51.514;14.614;2023-04-15T12:47:04;9.00;54.90
15879;DHT22;61999;51.514;14.614;2023-04-15T12:49:36;9.00;54.80
15879;DHT22;61999;51.514;14.614;2023-04-15T12:52:05;9.00;54.30
15879;DHT22;61999;51.514;14.614;2023-04-15T12:54:33;8.70;55.40
15879;DHT22;61999;51.514;14.614;2023-04-15T12:57:01;8.50;56.40
15879;DHT22;61999;51.514;14.614;2023-04-15T12:59:33;8.40;56.60
15879;DHT22;61999;51.514;14.614;2023-04-15T13:02:02;8.20;57.60
15879;DHT22;61999;51.514;14.614;2023-04-15T13:04:30;8.40;56.80
15879;DHT22;61999;51.514;14.614;2023-04-15T13:06:59;8.70;55.30
15879;DHT22;61999;51.514;14.614;2023-04-15T13:09:27;8.70;55.50
15879;DHT22;61999;51.514;14.614;2023-04-15T13:11:56;8.60;56.00
15879;DHT22;61999;51.514;14.614;2023-04-15T13:14:24;8.60;55.90
15879;DHT22;61999;51.514;14.614;2023-04-15T13:16:54;8.50;55.90
15879;DHT22;61999;51.514;14.614;2023-04-15T13:19:22;8.40;56.10
15879;DHT22;61999;51.514;14.614;2023-04-15T13:21:50;8.40;56.50
15879;DHT22;61999;51.514;14.614;2023-04-15T13:24:18;8.20;56.90
15879;DHT22;61999;51.514;14.614;2023-04-15T13:26:46;8.40;56.00
15879;DHT22;61999;51.514;14.614;2023-04-15T13:29:15;8.30;56.00
15879;DHT22;61999;51.514;14.614;2023-04-15T13:31:43;8.10;57.50
15879;DHT22;61999;51.514;14.614;2023-04-15T13:34:12;8.10;57.80
15879;DHT22;61999;51.514;14.614;2023-04-15T13:36:40;8.10;57.60
15879;DHT22;61999;51.514;14.614;2023-04-15T13:39:08;8.20;57.40
15879;DHT22;61999;51.514;14.614;2023-04-15T13:41:36;8.30;57.10
15879;DHT22;61999;51.514;14.614;2023-04-15T13:44:04;8.30;57.50
15879;DHT22;61999;51.514;14.614;2023-04-15T13:46:32;8.40;57.10
15879;DHT22;61999;51.514;14.614;2023-04-15T13:49:00;8.30;57.40
15879;DHT22;61999;51.514;14.614;2023-04-15T13:51:29;8.40;57.20
15879;DHT22;61999;51.514;14.614;2023-04-15T13:53:58;8.50;57.10
15879;DHT22;61999;51.514;14.614;2023-04-15T13:56:26;8.60;56.80
15879;DHT22;61999;51.514;14.614;2023-04-15T13:58:54;8.70;56.30
15879;DHT22;61999;51.514;14.614;2023-04-15T14:01:24;8.60;56.10
15879;DHT22;61999;51.514;14.614;2023-04-15T14:03:52;8.50;56.90
15879;DHT22;61999;51.514;14.614;2023-04-15T14:06:20;8.50;57.20
15879;DHT22;61999;51.514;14.614;2023-04-15T14:08:50;8.70;56.20
15879;DHT22;61999;51.514;14.614;2023-04-15T14:11:18;8.70;56.50
15879;DHT22;61999;51.514;14.614;2023-04-15T14:13:46;8.80;56.90
15879;DHT22;61999;51.514;14.614;2023-04-15T14:16:14;8.70;56.80
15879;DHT22;61999;51.514;14.614;2023-04-15T14:18:43;8.80;56.60
15879;DHT22;61999;51.514;14.614;2023-04-15T14:21:12;8.90;58.60
15879;DHT22;61999;51.514;14.614;2023-04-15T14:23:40;8.90;55.90
15879;DHT22;61999;51.514;14.614;2023-04-15T14:26:09;9.10;58.10
15879;DHT22;61999;51.514;14.614;2023-04-15T14:28:37;9.30;55.50
15879;DHT22;61999;51.514;14.614;2023-04-15T14:31:05;9.40;56.20
15879;DHT22;61999;51.514;14.614;2023-04-15T14:33:33;9.50;54.60
15879;DHT22;61999;51.514;14.614;2023-04-15T14:36:01;9.70;57.70
15879;DHT22;61999;51.514;14.614;2023-04-15T14:38:29;10.20;54.10
15879;DHT22;61999;51.514;14.614;2023-04-15T14:40:59;10.40;53.70
15879;DHT22;61999;51.514;14.614;2023-04-15T14:43:28;10.50;53.40
15879;DHT22;61999;51.514;14.614;2023-04-15T14:45:56;10.40;54.30
15879;DHT22;61999;51.514;14.614;2023-04-15T14:48:25;10.60;52.90
15879;DHT22;61999;51.514;14.614;2023-04-15T14:50:53;10.70;52.50
15879;DHT22;61999;51.514;14.614;2023-04-15T14:53:21;10.60;51.90
15879;DHT22;61999;51.514;14.614;2023-04-15T14:55:49;10.40;53.20
15879;DHT22;61999;51.514;14.614;2023-04-15T14:58:17;10.30;53.50
15879;DHT22;61999;51.514;14.614;2023-04-15T15:00:46;10.20;52.70
15879;DHT22;61999;51.514;14.614;2023-04-15T15:03:14;10.10;53.60
15879;DHT22;61999;51.514;14.614;2023-04-15T15:05:44;9.90;54.30
15879;DHT22;61999;51.514;14.614;2023-04-15T15:08:12;10.00;53.70
15879;DHT22;61999;51.514;14.614;2023-04-15T15:10:41;10.40;51.90
15879;DHT22;61999;51.514;14.614;2023-04-15T15:13:10;10.30;51.90
15879;DHT22;61999;51.514;14.614;2023-04-15T15:15:38;10.30;51.90
15879;DHT22;61999;51.514;14.614;2023-04-15T15:18:07;10.10;52.00
15879;DHT22;61999;51.514;14.614;2023-04-15T15:20:37;10.00;52.30
15879;DHT22;61999;51.514;14.614;2023-04-15T15:23:05;9.90;52.60
15879;DHT22;61999;51.514;14.614;2023-04-15T15:25:33;9.70;53.00
15879;DHT22;61999;51.514;14.614;2023-04-15T15:28:01;9.40;53.60
15879;DHT22;61999;51.514;14.614;2023-04-15T15:30:29;9.10;54.10
15879;DHT22;61999;51.514;14.614;2023-04-15T15:32:57;8.90;54.30
15879;DHT22;61999;51.514;14.614;2023-04-15T15:35:26;8.80;55.00
15879;DHT22;61999;51.514;14.614;2023-04-15T15:37:54;8.70;55.20
15879;DHT22;61999;51.514;14.614;2023-04-15T15:40:22;9.00;54.30
15879;DHT22;61999;51.514;14.614;2023-04-15T15:42:51;9.10;54.10